Acadia National Park, ME

6:40 AM EDT on May 30, 2015 (GMT -0400)
College of the Atlantic | | Change Station
CLOSE
Current Station
Personal Weather Station
Location: Bar Harbor, ME
Elevation: 52 ft
Nearby Weather Stations
Active Advisory: Special Statement Active Notice: Local Storm Report

Elev 52 ft 44.39 °N, 68.22 °W | Updated 1 minute ago

Overcast
Overcast
54.1 °F
Feels Like 54.1 °F
N
0.0
Wind Variable Wind from East
Gusts 2.0 mph

Today
High -- | Low -- °F
--% Chance of Precip.
Yesterday
High -- | Low -- °F
Precip. -- in
4:52 AM 8:08 PM
Waxing Gibbous, 89% visible
Pressure 30.18 in
Visibility 0.2 miles
Clouds Overcast 200 ft
Dew Point 54 °F
Humidity 100%
Rainfall 0.00 in
Snow Depth Not available.
UV 0 out of 12
Pollen 9.00 out of 12
Air Quality Not available.
Flu Activity Regional
METAR KBHB 301035Z AUTO 20007KT 1/4SM OVC002 12/12 A3018 RMK AO1

More Conditions Fewer Conditions

Pressure 30.18 in
Visibility 0.2 miles
Clouds Overcast 200 ft
Dew Point 54 °F
Humidity 100%
Rainfall 0.00 in
Snow Depth Not available.
UV 0 out of 12
Pollen 9.00 out of 12
Air Quality Not available.
Flu Activity Regional
METAR KBHB 301035Z AUTO 20007KT 1/4SM OVC002 12/12 A3018 RMK AO1

More Conditions Fewer Conditions

10-Day Weather Forecast

Almanac

Astronomy

May. 30, 2015 Rise Set
Actual Time
Civil Twilight
Nautical Twilight
Astronomical Twilight
Moon
Length of Visible Light
Length of Day
Tomorrow will be .
, % of the Moon is Illuminated

Today's Extremes

State Highs State Lows

Community

WunderPhotos

Upload Photos

1,825,478 photos uploaded!

WunderBlogs® & News

Nearby

Air Quality

  Air Quality AQ Index Pollutant
Not available.

Snow Depth

Station Depth Elevation

Earthquake Activity

City Distance Mag. Time & Date
Minimum magnitude displayed is 2.5.

Coastal Water Temperatures

Place Temperature

Stations

Nearby Weather Stations

Station Location Temp. Windchill Dew Point Humidity Wind Precip. Elev Updated Type
                   
Special Statement
Statement as of 6:19 AM EDT on May 30, 2015

... Fog will reduce visibility to below a half mile at times across
coastal downeast Maine til mid morning...

Motorists driving on area roadways of coastal downeast Maine
should be alert for areas of visibilities below a half mile until
about mid morning... when visibility improves as the fog lifts.
Give yourself extra following distance with vehicles ahead of you
and slow down and allow extra time to reach your destination.


Vjn